createdAt,value
2023-12-16T00:02:17.894Z,80.34
2023-12-16T00:04:45.324Z,80.42
2023-12-16T00:07:12.693Z,80.58
2023-12-16T00:09:40.055Z,81.18
2023-12-16T00:12:08.199Z,81.11
2023-12-16T00:14:37.756Z,80.82
2023-12-16T00:17:05.492Z,81.14
2023-12-16T00:19:33.009Z,80.80
2023-12-16T00:22:00.611Z,81.34
2023-12-16T00:24:28.034Z,81.77
2023-12-16T00:26:55.447Z,81.24
2023-12-16T00:29:23.001Z,80.76
2023-12-16T00:31:50.318Z,80.59
2023-12-16T00:34:18.004Z,81.18
2023-12-16T00:36:45.583Z,81.04
2023-12-16T00:39:13.039Z,80.80
2023-12-16T00:41:40.481Z,81.51
2023-12-16T00:44:08.117Z,81.42
2023-12-16T00:46:35.891Z,80.93
2023-12-16T00:49:03.926Z,80.63
2023-12-16T00:51:31.395Z,80.37
2023-12-16T00:53:58.712Z,80.16
2023-12-16T00:56:26.000Z,80.02
2023-12-16T00:58:55.401Z,80.15
2023-12-16T01:01:22.881Z,80.46
2023-12-16T01:03:50.466Z,80.35
2023-12-16T01:06:17.804Z,80.79
2023-12-16T01:08:45.158Z,81.82
2023-12-16T01:11:15.708Z,81.46
2023-12-16T01:13:43.171Z,81.88
2023-12-16T01:16:10.548Z,80.58
2023-12-16T01:18:37.937Z,80.52
2023-12-16T01:21:10.089Z,80.12
2023-12-16T01:23:37.836Z,81.05
2023-12-16T01:26:05.543Z,80.69
2023-12-16T01:28:33.277Z,81.49
2023-12-16T01:31:00.685Z,81.98
2023-12-16T01:33:28.108Z,81.55
2023-12-16T01:35:55.426Z,80.57
2023-12-16T01:38:23.484Z,80.03
2023-12-16T01:40:50.880Z,79.95
2023-12-16T01:43:18.541Z,79.74
2023-12-16T01:45:45.927Z,79.95
2023-12-16T01:48:14.252Z,79.40
2023-12-16T01:50:41.691Z,79.11
2023-12-16T01:53:09.031Z,79.49
2023-12-16T01:55:36.349Z,79.02
2023-12-16T01:58:03.820Z,79.80
2023-12-16T02:00:31.297Z,80.61
2023-12-16T02:02:58.678Z,81.02
2023-12-16T02:05:25.967Z,80.96
2023-12-16T02:07:53.380Z,80.33
2023-12-16T02:10:20.654Z,80.29
2023-12-16T02:12:48.154Z,80.00
2023-12-16T02:15:16.160Z,80.57
2023-12-16T02:17:43.570Z,80.62
2023-12-16T02:20:11.883Z,80.00
2023-12-16T02:22:39.363Z,79.26
2023-12-16T02:25:08.717Z,79.63
2023-12-16T02:27:36.280Z,79.20
2023-12-16T02:30:05.019Z,79.85
2023-12-16T02:32:32.519Z,80.49
2023-12-16T02:35:00.174Z,80.53
2023-12-16T02:37:27.616Z,80.51
2023-12-16T02:39:54.969Z,79.67
2023-12-16T02:42:22.352Z,79.85
2023-12-16T02:44:49.791Z,80.42
2023-12-16T02:47:17.382Z,80.67
2023-12-16T02:49:45.865Z,80.95
2023-12-16T02:52:13.311Z,80.97
2023-12-16T02:54:40.725Z,81.05
2023-12-16T02:57:08.096Z,81.37
2023-12-16T02:59:35.445Z,81.41
2023-12-16T03:02:02.906Z,81.74
2023-12-16T03:04:30.175Z,81.68
2023-12-16T03:06:57.598Z,82.15
2023-12-16T03:09:25.294Z,82.49
2023-12-16T03:11:53.032Z,82.11
2023-12-16T03:14:20.368Z,82.03
2023-12-16T03:16:48.097Z,81.01
2023-12-16T03:19:15.554Z,81.03
2023-12-16T03:21:42.862Z,81.29
2023-12-16T03:24:13.058Z,81.47
2023-12-16T03:26:41.839Z,81.44
2023-12-16T03:29:09.189Z,81.61
2023-12-16T03:31:36.708Z,81.64
2023-12-16T03:34:04.312Z,81.25
2023-12-16T03:36:32.118Z,81.34
2023-12-16T03:38:59.481Z,81.10
2023-12-16T03:41:26.771Z,80.78
2023-12-16T03:43:54.051Z,80.66
2023-12-16T03:46:22.699Z,80.92
2023-12-16T03:48:51.158Z,80.79
2023-12-16T03:51:19.053Z,80.31
2023-12-16T03:53:46.407Z,80.32
2023-12-16T03:56:13.731Z,80.24
2023-12-16T03:58:40.984Z,80.85
2023-12-16T04:01:14.695Z,80.82
2023-12-16T04:03:42.479Z,80.64
2023-12-16T04:06:13.353Z,80.75
2023-12-16T04:08:41.046Z,81.14
2023-12-16T04:11:08.637Z,81.19
2023-12-16T04:13:36.026Z,81.40
2023-12-16T04:16:04.765Z,81.25
2023-12-16T04:18:33.030Z,81.23
2023-12-16T04:21:00.955Z,81.28
2023-12-16T04:23:29.083Z,81.01
2023-12-16T04:25:56.533Z,81.44
2023-12-16T04:28:23.822Z,81.65
2023-12-16T04:30:51.392Z,81.69
2023-12-16T04:33:19.077Z,82.05
2023-12-16T04:35:46.365Z,82.27
2023-12-16T04:38:13.751Z,82.36
2023-12-16T04:40:41.064Z,82.09
2023-12-16T04:43:08.391Z,81.93
2023-12-16T04:45:36.976Z,82.21
2023-12-16T04:48:05.076Z,82.41
2023-12-16T04:50:32.503Z,82.06
2023-12-16T04:52:59.838Z,81.55
2023-12-16T04:55:27.293Z,81.22
2023-12-16T04:57:54.667Z,80.90
2023-12-16T05:00:22.060Z,81.10
2023-12-16T05:02:49.604Z,81.73
2023-12-16T05:05:17.035Z,81.85
2023-12-16T05:07:44.394Z,81.82
2023-12-16T05:10:12.158Z,81.64
2023-12-16T05:12:41.222Z,81.75
2023-12-16T05:15:08.985Z,81.33
2023-12-16T05:17:36.818Z,81.42
2023-12-16T05:20:05.020Z,81.33
2023-12-16T05:22:35.650Z,81.73
2023-12-16T05:25:03.779Z,82.24
2023-12-16T05:27:31.840Z,82.29
2023-12-16T05:29:59.604Z,82.80
2023-12-16T05:32:27.746Z,83.52
2023-12-16T05:34:55.554Z,83.93
2023-12-16T05:37:22.975Z,84.04
2023-12-16T05:39:50.326Z,84.18
2023-12-16T05:42:18.899Z,84.28
2023-12-16T05:44:46.631Z,84.01
2023-12-16T05:47:14.325Z,84.20
2023-12-16T05:49:41.626Z,84.56
2023-12-16T05:52:08.993Z,84.15
2023-12-16T05:54:36.335Z,84.43
2023-12-16T05:57:03.712Z,84.72
2023-12-16T05:59:31.180Z,83.96
2023-12-16T06:01:58.578Z,83.80
2023-12-16T06:04:26.283Z,83.46
2023-12-16T06:06:53.695Z,83.91
2023-12-16T06:09:21.027Z,84.53
2023-12-16T06:11:48.276Z,84.54
2023-12-16T06:14:15.774Z,83.70
2023-12-16T06:16:43.092Z,83.57
2023-12-16T06:19:10.653Z,84.12
2023-12-16T06:21:38.062Z,84.89
2023-12-16T06:24:07.215Z,85.42
2023-12-16T06:26:34.477Z,85.68
2023-12-16T06:29:01.848Z,85.87
2023-12-16T06:31:29.169Z,85.80
2023-12-16T06:33:56.631Z,85.26
2023-12-16T06:36:24.499Z,85.17
2023-12-16T06:38:51.824Z,84.65
2023-12-16T06:41:19.173Z,84.46
2023-12-16T06:43:46.636Z,84.30
2023-12-16T06:46:13.984Z,83.74
2023-12-16T06:48:41.365Z,83.42
2023-12-16T06:51:08.787Z,83.26
2023-12-16T06:53:37.247Z,83.68
2023-12-16T06:56:05.159Z,83.07
2023-12-16T06:58:33.588Z,82.95
2023-12-16T07:01:01.048Z,83.00
2023-12-16T07:03:29.907Z,83.78
2023-12-16T07:05:57.400Z,83.19
2023-12-16T07:08:24.755Z,83.28
2023-12-16T07:10:52.022Z,83.27
2023-12-16T07:13:19.553Z,83.51
2023-12-16T07:15:47.008Z,83.30
2023-12-16T07:18:14.390Z,83.11
2023-12-16T07:20:41.818Z,82.97
2023-12-16T07:23:09.197Z,83.49
2023-12-16T07:25:36.513Z,83.29
2023-12-16T07:28:04.003Z,83.05
2023-12-16T07:30:31.416Z,82.86
2023-12-16T07:32:58.873Z,82.47
2023-12-16T07:35:26.693Z,82.51
2023-12-16T07:37:54.072Z,82.69
2023-12-16T07:40:21.797Z,82.45
2023-12-16T07:42:49.336Z,82.21
2023-12-16T07:45:17.261Z,81.94
2023-12-16T07:47:44.823Z,82.03
2023-12-16T07:50:12.526Z,82.13
2023-12-16T07:52:39.840Z,81.82
2023-12-16T07:55:07.675Z,81.78
2023-12-16T07:57:35.211Z,81.71
2023-12-16T08:00:02.548Z,82.34
2023-12-16T08:02:32.377Z,82.82
2023-12-16T08:05:00.158Z,82.96
2023-12-16T08:07:27.562Z,82.73
2023-12-16T08:09:54.882Z,82.68
2023-12-16T08:12:22.312Z,82.71
2023-12-16T08:14:49.587Z,82.28
2023-12-16T08:17:17.045Z,82.59
2023-12-16T08:19:44.653Z,82.55
2023-12-16T08:22:12.179Z,82.35
2023-12-16T08:24:41.755Z,82.68
2023-12-16T08:27:09.172Z,82.48
2023-12-16T08:29:37.948Z,82.85
2023-12-16T08:32:05.511Z,83.25
2023-12-16T08:34:35.247Z,82.88
2023-12-16T08:37:02.982Z,83.02
2023-12-16T08:39:30.434Z,82.86
2023-12-16T08:41:57.850Z,83.38
2023-12-16T08:44:25.177Z,82.93
2023-12-16T08:46:52.576Z,82.90
2023-12-16T08:49:20.153Z,82.94
2023-12-16T08:51:49.246Z,83.58
2023-12-16T08:54:16.653Z,83.20
2023-12-16T08:56:44.951Z,82.65
2023-12-16T08:59:12.301Z,82.76
2023-12-16T09:01:40.206Z,82.47
2023-12-16T09:04:07.678Z,82.71
2023-12-16T09:06:40.433Z,83.07
2023-12-16T09:09:09.401Z,83.05
2023-12-16T09:11:37.659Z,82.36
2023-12-16T09:14:06.872Z,82.09
2023-12-16T09:16:36.025Z,82.25
2023-12-16T09:19:04.962Z,81.83
2023-12-16T09:21:32.425Z,81.58
2023-12-16T09:23:59.890Z,81.22
2023-12-16T09:26:27.277Z,81.25
2023-12-16T09:28:54.871Z,81.08
2023-12-16T09:31:22.394Z,81.31
2023-12-16T09:33:50.155Z,81.30
2023-12-16T09:36:17.538Z,80.88
2023-12-16T09:38:45.013Z,81.01
2023-12-16T09:41:25.850Z,81.04
2023-12-16T09:43:54.259Z,80.65
2023-12-16T09:46:25.476Z,80.49
2023-12-16T09:48:54.166Z,80.85
2023-12-16T09:51:23.027Z,81.76
2023-12-16T09:53:53.960Z,81.60
2023-12-16T09:56:21.529Z,81.56
2023-12-16T09:58:49.992Z,81.25
2023-12-16T10:01:18.794Z,80.93
2023-12-16T10:03:47.796Z,80.62
2023-12-16T10:06:16.362Z,80.68
2023-12-16T10:08:43.923Z,80.31
2023-12-16T10:11:13.825Z,80.36
2023-12-16T10:13:59.355Z,80.30
2023-12-16T10:16:26.915Z,80.47
2023-12-16T10:18:55.469Z,80.16
2023-12-16T10:21:25.792Z,80.16
2023-12-16T10:23:54.290Z,80.41
2023-12-16T10:26:22.280Z,80.56
2023-12-16T10:28:50.323Z,80.71
2023-12-16T10:31:20.109Z,81.07
2023-12-16T10:33:47.866Z,80.93
2023-12-16T10:36:16.246Z,81.12
2023-12-16T10:38:43.662Z,80.96
2023-12-16T10:41:10.985Z,80.61
2023-12-16T10:43:39.407Z,81.53
2023-12-16T10:46:07.438Z,81.49
2023-12-16T10:48:36.216Z,80.78
2023-12-16T10:51:04.794Z,79.78
2023-12-16T10:53:40.597Z,80.99
2023-12-16T10:56:19.179Z,81.21
2023-12-16T10:58:53.329Z,80.27
2023-12-16T11:01:21.293Z,80.12
2023-12-16T11:03:51.086Z,80.12
2023-12-16T11:06:22.666Z,79.59
2023-12-16T11:08:50.084Z,78.95
2023-12-16T11:11:17.711Z,77.52
2023-12-16T11:13:45.277Z,78.23
2023-12-16T11:16:18.825Z,77.64
2023-12-16T11:18:46.627Z,76.65
2023-12-16T11:21:19.086Z,76.71
2023-12-16T11:23:47.346Z,75.79
2023-12-16T11:26:14.866Z,74.87
2023-12-16T11:28:44.544Z,74.82
2023-12-16T11:31:12.127Z,75.53
2023-12-16T11:33:47.425Z,75.14
2023-12-16T11:36:21.254Z,75.24
2023-12-16T11:38:49.000Z,74.40
2023-12-16T11:41:37.688Z,74.15
2023-12-16T11:44:05.223Z,74.42
2023-12-16T11:46:42.435Z,73.93
2023-12-16T11:49:16.163Z,74.09
2023-12-16T11:51:43.971Z,74.43
2023-12-16T11:54:13.154Z,74.30
2023-12-16T11:56:40.543Z,74.33
2023-12-16T11:59:09.336Z,74.54
2023-12-16T12:01:37.141Z,74.45
2023-12-16T12:04:05.653Z,73.88
2023-12-16T12:06:33.587Z,74.56
2023-12-16T12:09:01.413Z,74.25
2023-12-16T12:11:28.852Z,74.06
2023-12-16T12:13:57.919Z,74.11
2023-12-16T12:16:29.425Z,73.00
2023-12-16T12:18:58.141Z,73.15
2023-12-16T12:21:25.549Z,73.74
2023-12-16T12:23:52.908Z,73.50
2023-12-16T12:26:22.301Z,73.36
2023-12-16T12:29:01.112Z,73.39
2023-12-16T12:31:30.436Z,73.44
2023-12-16T12:33:58.089Z,73.72
2023-12-16T12:36:25.574Z,73.64
2023-12-16T12:38:56.533Z,73.56
2023-12-16T12:41:24.020Z,73.70
2023-12-16T12:43:51.364Z,72.49
2023-12-16T12:46:18.667Z,72.57
2023-12-16T12:48:54.755Z,72.21
2023-12-16T12:51:22.320Z,71.76
2023-12-16T12:53:58.237Z,71.62
2023-12-16T12:56:27.086Z,72.44
2023-12-16T12:58:54.396Z,70.32
2023-12-16T13:01:21.826Z,70.81
2023-12-16T13:03:49.347Z,70.64
2023-12-16T13:06:16.846Z,70.77
2023-12-16T13:08:44.956Z,68.99
2023-12-16T13:11:12.364Z,69.75
2023-12-16T13:13:39.631Z,70.45
2023-12-16T13:16:09.239Z,69.72
2023-12-16T13:18:42.466Z,69.73
2023-12-16T13:21:10.860Z,68.25
2023-12-16T13:23:38.708Z,67.73
2023-12-16T13:26:11.866Z,67.58
2023-12-16T13:28:41.731Z,67.52
2023-12-16T13:31:09.811Z,67.56
2023-12-16T13:33:37.650Z,67.69
2023-12-16T13:36:32.456Z,68.06
2023-12-16T13:38:53.779Z,66.96
2023-12-16T13:41:21.115Z,66.07
2023-12-16T13:43:50.412Z,66.09
2023-12-16T13:46:17.787Z,66.17
2023-12-16T13:48:45.406Z,65.66
2023-12-16T13:51:12.825Z,65.14
2023-12-16T13:53:40.202Z,65.46
2023-12-16T13:56:08.379Z,65.59
2023-12-16T13:58:35.915Z,64.84
2023-12-16T14:01:03.582Z,64.77
2023-12-16T14:03:31.079Z,66.33
2023-12-16T14:05:58.574Z,65.22
2023-12-16T14:08:26.003Z,65.73
2023-12-16T14:10:53.268Z,65.84
2023-12-16T14:13:20.779Z,66.31
2023-12-16T14:15:48.065Z,65.98
2023-12-16T14:18:15.515Z,65.59
2023-12-16T14:20:42.881Z,65.75
2023-12-16T14:23:10.295Z,65.91
2023-12-16T14:25:37.591Z,66.20
2023-12-16T14:28:05.197Z,65.65
2023-12-16T14:30:32.750Z,66.16
2023-12-16T14:33:00.401Z,66.74
2023-12-16T14:35:27.950Z,67.57
2023-12-16T14:37:55.296Z,66.18
2023-12-16T14:40:22.655Z,66.65
2023-12-16T14:42:50.207Z,66.75
2023-12-16T14:45:17.757Z,68.10
2023-12-16T14:47:46.562Z,69.04
2023-12-16T14:50:14.511Z,69.73
2023-12-16T14:52:42.382Z,70.27
2023-12-16T14:55:09.739Z,71.28
2023-12-16T14:57:37.104Z,71.04
2023-12-16T15:00:05.566Z,71.06
2023-12-16T15:02:33.385Z,71.43
2023-12-16T15:05:01.701Z,71.53
2023-12-16T15:07:29.220Z,71.50
2023-12-16T15:09:56.719Z,71.90
2023-12-16T15:12:24.201Z,72.68
2023-12-16T15:14:51.615Z,73.02
2023-12-16T15:17:21.809Z,73.32
2023-12-16T15:19:49.325Z,73.72
2023-12-16T15:22:16.605Z,74.20
2023-12-16T15:24:44.100Z,74.16
2023-12-16T15:27:11.464Z,74.25
2023-12-16T15:29:39.081Z,75.07
2023-12-16T15:32:07.118Z,75.44
2023-12-16T15:34:35.316Z,75.42
2023-12-16T15:37:08.830Z,75.63
2023-12-16T15:39:45.459Z,75.90
2023-12-16T15:42:12.882Z,76.42
2023-12-16T15:44:40.315Z,77.03
2023-12-16T15:47:07.797Z,77.07
2023-12-16T15:49:35.458Z,77.29
2023-12-16T15:52:04.034Z,77.33
2023-12-16T15:54:31.392Z,77.22
2023-12-16T15:57:00.637Z,77.77
2023-12-16T15:59:28.005Z,77.97
2023-12-16T16:01:55.805Z,78.47
2023-12-16T16:04:23.055Z,78.80
2023-12-16T16:06:50.550Z,79.62
2023-12-16T16:09:19.163Z,80.12
2023-12-16T16:11:46.827Z,78.56
2023-12-16T16:14:14.215Z,79.72
2023-12-16T16:16:41.630Z,79.99
2023-12-16T16:19:09.501Z,79.66
2023-12-16T16:21:37.147Z,79.55
2023-12-16T16:24:04.907Z,79.34
2023-12-16T16:26:34.294Z,79.89
2023-12-16T16:29:02.426Z,80.34
2023-12-16T16:31:30.322Z,80.18
2023-12-16T16:33:57.965Z,80.64
2023-12-16T16:36:28.483Z,80.49
2023-12-16T16:38:55.940Z,80.97
2023-12-16T16:41:23.509Z,80.86
2023-12-16T16:43:51.046Z,81.01
2023-12-16T16:46:18.588Z,80.80
2023-12-16T16:48:46.267Z,81.16
2023-12-16T16:51:13.722Z,81.79
2023-12-16T16:53:41.251Z,82.25
2023-12-16T16:56:09.232Z,82.72
2023-12-16T16:58:37.506Z,82.02
2023-12-16T17:01:06.906Z,82.16
2023-12-16T17:03:37.253Z,81.59
2023-12-16T17:06:06.392Z,82.43
2023-12-16T17:08:34.400Z,82.97
2023-12-16T17:11:05.382Z,83.13
2023-12-16T17:13:33.225Z,82.15
2023-12-16T17:16:00.563Z,81.50
2023-12-16T17:18:28.201Z,81.19
2023-12-16T17:20:55.760Z,80.54
2023-12-16T17:23:24.067Z,80.49
2023-12-16T17:25:51.349Z,80.67
2023-12-16T17:28:18.704Z,81.36
2023-12-16T17:30:46.198Z,81.85
2023-12-16T17:33:13.872Z,82.16
2023-12-16T17:35:41.583Z,81.12
2023-12-16T17:38:09.060Z,81.06
2023-12-16T17:40:36.481Z,81.35
2023-12-16T17:43:03.822Z,81.79
2023-12-16T17:45:31.175Z,81.07
2023-12-16T17:47:58.693Z,81.31
2023-12-16T17:50:26.161Z,81.03
2023-12-16T17:52:53.832Z,82.08
2023-12-16T17:55:21.299Z,82.27
2023-12-16T17:57:49.030Z,81.42
2023-12-16T18:00:16.890Z,81.19
2023-12-16T18:02:44.606Z,81.17
2023-12-16T18:05:12.284Z,82.07
2023-12-16T18:07:40.133Z,81.74
2023-12-16T18:10:08.073Z,80.73
2023-12-16T18:12:35.486Z,80.70
2023-12-16T18:15:02.900Z,80.39
2023-12-16T18:17:30.390Z,80.12
2023-12-16T18:19:57.905Z,79.17
2023-12-16T18:22:25.385Z,79.32
2023-12-16T18:24:52.869Z,79.83
2023-12-16T18:27:20.240Z,79.46
2023-12-16T18:29:50.600Z,78.76
2023-12-16T18:32:17.993Z,78.97
2023-12-16T18:34:45.410Z,78.79
2023-12-16T18:37:13.041Z,79.11
2023-12-16T18:39:40.914Z,79.30
2023-12-16T18:42:08.674Z,79.75
2023-12-16T18:44:36.138Z,79.56
2023-12-16T18:47:04.079Z,79.95
2023-12-16T18:49:33.508Z,79.71
2023-12-16T18:52:01.204Z,79.40
2023-12-16T18:54:28.569Z,78.80
2023-12-16T18:56:55.998Z,78.58
2023-12-16T18:59:23.695Z,79.15
2023-12-16T19:01:51.234Z,79.26
2023-12-16T19:04:18.791Z,78.85
2023-12-16T19:06:46.190Z,79.47
2023-12-16T19:09:13.626Z,80.14
2023-12-16T19:11:41.244Z,80.61
2023-12-16T19:14:08.653Z,80.58
2023-12-16T19:16:36.373Z,80.29
2023-12-16T19:19:04.226Z,80.28
2023-12-16T19:21:32.079Z,80.50
2023-12-16T19:23:59.617Z,80.06
2023-12-16T19:26:27.297Z,80.28
2023-12-16T19:28:54.619Z,81.01
2023-12-16T19:31:22.020Z,81.34
2023-12-16T19:33:50.256Z,81.34
2023-12-16T19:36:17.807Z,80.95
2023-12-16T19:38:46.281Z,80.89
2023-12-16T19:41:13.878Z,80.83
2023-12-16T19:43:41.391Z,80.60
2023-12-16T19:46:08.877Z,81.05
2023-12-16T19:48:38.039Z,81.07
2023-12-16T19:51:06.705Z,80.57
2023-12-16T19:53:34.316Z,80.90
2023-12-16T19:56:01.889Z,81.34
2023-12-16T19:58:29.147Z,81.39
2023-12-16T20:00:56.517Z,81.43
2023-12-16T20:03:23.973Z,82.13
2023-12-16T20:05:51.591Z,82.47
2023-12-16T20:08:18.963Z,82.71
2023-12-16T20:10:46.500Z,82.84
2023-12-16T20:13:14.008Z,82.51
2023-12-16T20:15:41.500Z,82.16
2023-12-16T20:18:15.743Z,81.90
2023-12-16T20:20:43.350Z,82.47
2023-12-16T20:23:10.820Z,82.02
2023-12-16T20:25:38.286Z,81.59
2023-12-16T20:28:05.762Z,81.47
2023-12-16T20:30:33.215Z,81.57
2023-12-16T20:33:00.800Z,81.79
2023-12-16T20:35:28.521Z,81.70
2023-12-16T20:38:04.706Z,82.13
2023-12-16T20:40:33.890Z,82.68
2023-12-16T20:43:02.587Z,82.39
2023-12-16T20:45:30.078Z,81.94
2023-12-16T20:48:01.358Z,82.46
2023-12-16T20:50:29.195Z,83.12
2023-12-16T20:52:59.638Z,84.06
2023-12-16T20:55:28.411Z,84.41
2023-12-16T20:57:55.828Z,84.47
2023-12-16T21:00:26.115Z,83.65
2023-12-16T21:02:56.809Z,83.49
2023-12-16T21:05:24.816Z,82.75
2023-12-16T21:07:52.148Z,82.58
2023-12-16T21:10:19.621Z,83.72
2023-12-16T21:12:46.961Z,84.06
2023-12-16T21:15:14.462Z,84.10
2023-12-16T21:17:42.291Z,83.97
2023-12-16T21:20:10.130Z,83.38
2023-12-16T21:22:37.429Z,82.83
2023-12-16T21:25:05.647Z,82.79
2023-12-16T21:27:33.047Z,83.12
2023-12-16T21:30:00.676Z,83.27
2023-12-16T21:32:28.303Z,82.88
2023-12-16T21:34:55.995Z,82.88
2023-12-16T21:37:23.560Z,83.01
2023-12-16T21:39:50.947Z,83.24
2023-12-16T21:42:18.401Z,83.56
2023-12-16T21:44:47.979Z,83.47
2023-12-16T21:47:15.328Z,83.31
2023-12-16T21:49:42.842Z,83.13
2023-12-16T21:52:10.189Z,83.12
2023-12-16T21:54:37.539Z,83.07
2023-12-16T21:57:05.179Z,83.05
2023-12-16T21:59:32.577Z,82.88
2023-12-16T22:01:59.980Z,82.99
2023-12-16T22:04:27.332Z,82.96
2023-12-16T22:06:56.324Z,82.62
2023-12-16T22:09:23.865Z,82.42
2023-12-16T22:11:51.190Z,81.91
2023-12-16T22:14:18.533Z,81.49
2023-12-16T22:16:45.824Z,81.33
2023-12-16T22:19:13.308Z,81.39
2023-12-16T22:21:40.751Z,81.43
2023-12-16T22:24:09.068Z,81.13
2023-12-16T22:26:36.381Z,81.30
2023-12-16T22:29:03.756Z,81.91
2023-12-16T22:31:31.168Z,82.26
2023-12-16T22:33:58.606Z,82.74
2023-12-16T22:36:26.008Z,82.87
2023-12-16T22:38:53.431Z,82.69
2023-12-16T22:41:22.247Z,82.31
2023-12-16T22:43:49.621Z,81.98
2023-12-16T22:46:17.017Z,81.70
2023-12-16T22:48:44.524Z,80.88
2023-12-16T22:51:12.449Z,80.44
2023-12-16T22:53:40.174Z,80.69
2023-12-16T22:56:08.044Z,81.13
2023-12-16T22:58:40.177Z,81.53
2023-12-16T23:01:09.665Z,81.42
2023-12-16T23:03:37.938Z,80.83
2023-12-16T23:06:06.924Z,80.61
2023-12-16T23:08:34.504Z,80.47
2023-12-16T23:11:01.851Z,80.70
2023-12-16T23:13:29.173Z,80.97
2023-12-16T23:15:56.594Z,80.86
2023-12-16T23:18:24.066Z,80.54
2023-12-16T23:20:51.539Z,80.11
2023-12-16T23:23:18.868Z,80.23
2023-12-16T23:25:46.194Z,80.37
2023-12-16T23:28:13.552Z,80.31
2023-12-16T23:30:40.989Z,80.13
2023-12-16T23:33:08.453Z,80.24
2023-12-16T23:35:35.887Z,80.22
2023-12-16T23:38:03.521Z,80.16
2023-12-16T23:40:30.870Z,80.13
2023-12-16T23:42:58.223Z,79.87
2023-12-16T23:45:25.575Z,79.86
2023-12-16T23:47:53.410Z,79.85
2023-12-16T23:50:20.969Z,80.00
2023-12-16T23:52:48.263Z,80.21
2023-12-16T23:55:15.703Z,80.21
2023-12-16T23:57:43.437Z,80.34
